Nearby METAR Reports

 

KSBP - San Luis Obispo, California, USA
Distance from station: S 14mi, 22km
Updated: Wed, 20-Mar-2019 6:56am
Light rain, Overcast
Light rain, Overcast
 Wind from SSE
Wind: SSE 6 mph , 9 km/h
Temperature: 52°F , 11°C
Dew Point: 50°F , 10°C
Humidity: 94%
Barometer: 1016.3 hPa
Summary: Light rain
Clouds: Overcast
Visibility: 9 miles , 14 km
Cloud details: Mostly cloudy 1700 ft
Mostly cloudy 2200 ft
Overcast 4700 ft
2019/03/20 13:56 KSBP 201356Z 15005KT 9SM -RA BKN017 BKN022 OVC047 11/10 A3001 RMK AO2 SLP160 P0003 T01110100 $
KPRB - Paso Robles, California, USA
Distance from station: N 16mi, 26km
Updated: Wed, 20-Mar-2019 6:53am
Overcast
Overcast
 Wind from SE
Wind: SE 6 mph , 9 km/h
Temperature: 50°F , 10°C
Wind Chill: 48°F , 9°C
Dew Point: 48°F , 9°C
Humidity: 94%
Barometer: 1015.6 hPa
Clouds: Overcast
Visibility: 10 miles , 16 km
Cloud details: Few Clouds 1600 ft
Mostly cloudy 4900 ft
Overcast 6000 ft
2019/03/20 13:53 KPRB 201353Z AUTO 13005KT 10SM FEW016 BKN049 OVC060 10/09 A2999 RMK AO2 RAE29 SLP154 P0000 T01000094
 
KSMX - Santa Maria, California, USA
Distance from station: SSE 38mi, 62km
Updated: Wed, 20-Mar-2019 6:51am
Rain, Mist, Overcast
Rain, Mist, Overcast
 Wind from S
Wind: S 6 mph , 9 km/h
Temperature: 54°F , 12°C
Dew Point: 52°F , 11°C
Humidity: 94%
Barometer: 1016.6 hPa
Summary: Rain, Mist
Clouds: Overcast
Visibility: 3 miles , 5 km
Cloud details: Partly cloudy 2200 ft
Mostly cloudy 3500 ft
Overcast 4500 ft
2019/03/20 13:51 KSMX 201351Z 17005KT 3SM RA BR SCT022 BKN035 OVC045 12/11 A3002 RMK AO2 RAB30 SLP166 P0002 T01220106 $
KVBG - Vandenberg Afb, California, USA
Distance from station: S 48mi, 78km
Updated: Wed, 20-Mar-2019 6:55am
Mist, Mostly cloudy
Mist, Mostly cloudy
 Wind from SSE
Wind: SSE 6 mph , 9 km/h
Temperature: 52°F , 11°C
Dew Point: 50°F , 10°C
Humidity: 94%
Barometer: 1016.3 hPa
Summary: Mist
Clouds: Mostly cloudy
Visibility: 6 miles , 10 km
Cloud details: Partly cloudy 1300 ft
Mostly cloudy 1900 ft
Mostly cloudy 5000 ft
2019/03/20 13:55 KVBG 201355Z 16005KT 6SM BR SCT013 BKN019 BKN050 11/10 A3001 RMK AO2A RAE1329 SLP167 P0000 T01050101 FIRST